Time;durP1;ratioP1;P1;durP2;ratioP2;P2;SDS_P1;SDS_P2;PMS_P1;PMS_P2;Temp;Humidity;BMP_temperature;BMP_pressure;BME280_temperature;BME280_humidity;BME280_pressure;Samples;Min_cycle;Max_cycle;Signal;HPM_P1;HPM_P2
2023/07/29 00:01:51;;;;;;;;;;;;;;;18.11;46.62;100583.84;5096661;28;1094;-50
2023/07/29 00:04:17;;;;;;;;;;;;;;;18.07;45.59;100582.78;5088656;28;1051;-47
2023/07/29 00:06:42;;;;;;;;;;;;;;;17.97;45.04;100580.13;5099153;28;1228;-48
2023/07/29 00:09:08;;;;;;;;;;;;;;;18.86;46.19;100581.72;5098151;28;1905;-47
2023/07/29 00:11:34;;;;;;;;;;;;;;;18.21;46.78;100571.13;5081296;28;1090;-51
2023/07/29 00:14:00;;;;;;;;;;;;;;;18.06;46.10;100574.81;5098867;28;1061;-50
2023/07/29 00:16:26;;;;;;;;;;;;;;;17.85;45.79;100574.97;5098552;28;1090;-50
2023/07/29 00:18:52;;;;;;;;;;;;;;;17.93;44.84;100577.09;5098547;28;1011;-52
2023/07/29 00:21:17;;;;;;;;;;;;;;;18.62;46.46;100576.19;5080289;28;913;-50
2023/07/29 00:23:43;;;;;;;;;;;;;;;18.18;46.11;100575.25;5098857;28;1202;-47
2023/07/29 00:26:08;;;;;;;;;;;;;;;18.00;45.87;100565.78;5098968;28;1128;-50
2023/07/29 00:28:34;;;;;;;;;;;;;;;18.50;46.50;100573.03;5097962;28;1901;-52
2023/07/29 00:30:59;;;;;;;;;;;;;;;18.42;46.73;100577.22;5080671;28;1573;-52
2023/07/29 00:33:26;;;;;;;;;;;;;;;18.18;46.05;100567.00;5080735;28;1143;-51
2023/07/29 00:35:52;;;;;;;;;;;;;;;17.97;45.89;100565.56;5080763;28;1206;-54
2023/07/29 00:38:17;;;;;;;;;;;;;;;17.89;45.31;100567.78;5098534;28;1035;-48
2023/07/29 00:40:43;;;;;;;;;;;;;;;17.82;44.87;100561.78;5098497;28;1196;-51
2023/07/29 00:43:09;;;;;;;;;;;;;;;18.52;46.07;100554.28;5098471;28;1185;-50
2023/07/29 00:45:35;;;;;;;;;;;;;;;18.01;46.61;100550.13;5080104;28;1107;-47
2023/07/29 00:48:01;;;;;;;;;;;;;;;17.94;45.63;100542.19;5097991;28;1157;-48
2023/07/29 00:50:27;;;;;;;;;;;;;;;17.88;45.02;100548.78;5080330;28;1918;-46
2023/07/29 00:52:53;;;;;;;;;;;;;;;18.73;45.92;100554.88;5063640;28;1609;-49
2023/07/29 00:55:19;;;;;;;;;;;;;;;18.10;46.50;100546.44;5098473;28;1133;-52
2023/07/29 00:57:48;;;;;;;;;;;;;;;18.03;45.61;100543.19;5098051;28;1154;-50
2023/07/29 01:00:14;;;;;;;;;;;;;;;17.86;45.41;100548.28;5063368;28;1788;-47
2023/07/29 01:02:40;;;;;;;;;;;;;;;17.75;45.16;100545.63;5079889;28;1082;-51
2023/07/29 01:05:06;;;;;;;;;;;;;;;17.74;44.86;100545.88;5098174;28;1007;-50
2023/07/29 01:07:34;;;;;;;;;;;;;;;18.09;45.22;100543.97;5097850;28;1041;-49
2023/07/29 01:10:03;;;;;;;;;;;;;;;18.31;46.36;100546.22;5097514;28;1976;-47
2023/07/29 01:12:58;;;;;;;;;;;;;;;17.99;46.25;100544.06;5097618;28;1223;-52
2023/07/29 01:15:28;;;;;;;;;;;;;;;17.83;45.37;100543.34;5040692;28;1335;-50
2023/07/29 01:18:20;;;;;;;;;;;;;;;18.79;45.98;100545.44;5071336;28;1342;-52
2023/07/29 01:20:46;;;;;;;;;;;;;;;18.05;46.60;100540.97;5074585;28;1400;-50
2023/07/29 01:23:11;;;;;;;;;;;;;;;17.92;45.81;100531.47;5079837;28;1043;-49
2023/07/29 01:25:37;;;;;;;;;;;;;;;17.79;45.48;100529.34;5097531;28;1118;-49
2023/07/29 01:28:04;;;;;;;;;;;;;;;17.77;44.94;100518.63;5079661;28;1298;-47
2023/07/29 01:30:33;;;;;;;;;;;;;;;18.21;45.70;100525.13;5078823;28;1917;-50
2023/07/29 01:32:59;;;;;;;;;;;;;;;18.59;46.60;100529.97;5078556;28;1229;-49
2023/07/29 01:35:24;;;;;;;;;;;;;;;18.16;46.42;100525.22;5097758;28;1181;-48
2023/07/29 01:37:59;;;;;;;;;;;;;;;18.05;45.64;100520.91;5078866;28;1113;-50
2023/07/29 01:40:26;;;;;;;;;;;;;;;17.84;45.37;100520.22;5079451;28;1321;-49
2023/07/29 01:42:52;;;;;;;;;;;;;;;18.26;45.96;100524.28;5079004;28;1592;-49
2023/07/29 01:45:17;;;;;;;;;;;;;;;18.47;46.49;100525.69;5078722;28;911;-48
2023/07/29 01:47:43;;;;;;;;;;;;;;;18.07;46.19;100525.00;5097229;28;1054;-50
2023/07/29 01:50:09;;;;;;;;;;;;;;;17.94;45.70;100522.94;5079072;28;2047;-50
2023/07/29 01:52:35;;;;;;;;;;;;;;;17.87;45.15;100525.16;5078074;28;1078;-49
2023/07/29 01:55:01;;;;;;;;;;;;;;;18.80;45.99;100525.88;5096943;28;1078;-50
2023/07/29 01:57:26;;;;;;;;;;;;;;;18.17;46.36;100520.50;5096735;28;1070;-49
2023/07/29 01:59:52;;;;;;;;;;;;;;;18.06;45.49;100519.78;5078504;28;1579;-51
2023/07/29 02:02:18;;;;;;;;;;;;;;;17.79;45.30;100526.59;5096455;28;1125;-50
2023/07/29 02:04:45;;;;;;;;;;;;;;;17.74;45.01;100524.72;5097048;28;1062;-50
2023/07/29 02:07:10;;;;;;;;;;;;;;;18.67;45.91;100526.56;5078100;28;1552;-49
2023/07/29 02:09:36;;;;;;;;;;;;;;;18.22;46.60;100534.22;5096681;28;1914;-50
2023/07/29 02:12:02;;;;;;;;;;;;;;;18.03;46.01;100536.88;5096624;28;1066;-48
2023/07/29 02:14:36;;;;;;;;;;;;;;;17.86;45.50;100535.34;5096327;28;1031;-52
2023/07/29 02:17:02;;;;;;;;;;;;;;;17.77;44.87;100535.13;5096549;28;1045;-49
2023/07/29 02:19:27;;;;;;;;;;;;;;;18.49;45.91;100527.34;5096490;28;1100;-50
2023/07/29 02:21:53;;;;;;;;;;;;;;;18.19;46.26;100521.03;5077922;28;1102;-50
2023/07/29 02:24:19;;;;;;;;;;;;;;;17.94;45.97;100522.94;5096277;28;1074;-50
2023/07/29 02:26:45;;;;;;;;;;;;;;;18.11;45.84;100531.56;5078628;28;1097;-47
2023/07/29 02:29:10;;;;;;;;;;;;;;;18.40;46.52;100524.41;5078426;28;1974;-51
2023/07/29 02:31:37;;;;;;;;;;;;;;;17.99;46.08;100531.13;5096775;28;1129;-50
2023/07/29 02:34:03;;;;;;;;;;;;;;;17.88;45.48;100532.28;5095721;28;864;-50
2023/07/29 02:36:28;;;;;;;;;;;;;;;18.68;46.55;100530.97;5096488;28;1008;-52
2023/07/29 02:38:54;;;;;;;;;;;;;;;18.11;46.55;100523.31;5078453;28;1334;-51
2023/07/29 02:41:20;;;;;;;;;;;;;;;18.01;45.86;100533.59;5078468;28;1091;-51
2023/07/29 02:43:49;;;;;;;;;;;;;;;17.90;45.32;100521.84;5077890;28;1323;-48
2023/07/29 02:46:14;;;;;;;;;;;;;;;17.85;44.88;100533.72;5077919;28;1383;-51
2023/07/29 02:48:40;;;;;;;;;;;;;;;18.80;46.16;100545.16;5078155;28;1909;-49
2023/07/29 02:51:05;;;;;;;;;;;;;;;18.38;46.89;100538.44;5077665;28;1359;-50
2023/07/29 02:53:31;;;;;;;;;;;;;;;18.04;46.46;100544.03;5077764;28;1196;-48
2023/07/29 02:55:56;;;;;;;;;;;;;;;17.98;45.71;100543.25;5096457;28;1067;-48
2023/07/29 02:58:22;;;;;;;;;;;;;;;18.43;46.29;100546.66;5077685;28;851;-48
2023/07/29 03:00:48;;;;;;;;;;;;;;;18.47;46.87;100547.72;5096600;28;1114;-50
2023/07/29 03:03:14;;;;;;;;;;;;;;;18.04;46.71;100544.84;5077839;28;1352;-49
2023/07/29 03:05:40;;;;;;;;;;;;;;;17.98;45.96;100540.50;5095855;28;1108;-51
2023/07/29 03:08:05;;;;;;;;;;;;;;;17.89;45.33;100542.19;5096136;28;1090;-51
2023/07/29 03:10:31;;;;;;;;;;;;;;;18.89;46.27;100537.06;5095345;28;1976;-50
2023/07/29 03:12:56;;;;;;;;;;;;;;;18.27;46.80;100536.91;5095517;28;1157;-50
2023/07/29 03:15:25;;;;;;;;;;;;;;;18.04;46.06;100536.59;5077908;28;1582;-51
2023/07/29 03:17:51;;;;;;;;;;;;;;;17.99;45.30;100541.31;5096200;28;1363;-50
2023/07/29 03:20:17;;;;;;;;;;;;;;;18.31;45.69;100540.72;5096024;28;1363;-49
2023/07/29 03:22:43;;;;;;;;;;;;;;;18.72;46.73;100543.03;5095539;28;1077;-49
2023/07/29 03:25:09;;;;;;;;;;;;;;;18.29;46.44;100543.78;5077880;28;1204;-50
2023/07/29 03:27:36;;;;;;;;;;;;;;;18.07;45.70;100535.19;5077246;28;1070;-50
2023/07/29 03:30:02;;;;;;;;;;;;;;;18.02;45.30;100544.31;5075688;28;2430;-49
2023/07/29 03:32:28;;;;;;;;;;;;;;;19.12;46.27;100543.66;5076052;28;2098;-51
2023/07/29 03:34:54;;;;;;;;;;;;;;;18.35;47.03;100547.28;5063039;28;1943;-49
2023/07/29 03:37:20;;;;;;;;;;;;;;;18.26;46.01;100546.31;5076739;28;2243;-50
2023/07/29 03:39:45;;;;;;;;;;;;;;;18.11;45.46;100548.06;5094859;28;2137;-50
2023/07/29 03:42:11;;;;;;;;;;;;;;;18.43;46.22;100548.59;5095331;28;1902;-49
2023/07/29 03:44:38;;;;;;;;;;;;;;;18.67;46.96;100545.03;5076808;28;2106;-52
2023/07/29 03:47:04;;;;;;;;;;;;;;;18.37;47.05;100544.25;5095003;28;837;-50
2023/07/29 03:49:30;;;;;;;;;;;;;;;18.27;46.66;100542.41;5061262;28;1910;-53
2023/07/29 03:51:56;;;;;;;;;;;;;;;18.10;46.24;100549.19;5075501;28;1043;-52
2023/07/29 03:54:21;;;;;;;;;;;;;;;18.03;45.31;100556.13;5075295;28;1027;-53
2023/07/29 03:56:47;;;;;;;;;;;;;;;17.92;45.18;100552.66;5067011;28;1135;-51
2023/07/29 03:59:12;;;;;;;;;;;;;;;18.48;45.93;100554.03;5092396;28;860;-49
2023/07/29 04:01:38;;;;;;;;;;;;;;;18.59;47.14;100552.00;5078557;28;1596;-53
2023/07/29 04:04:04;;;;;;;;;;;;;;;18.23;46.68;100550.44;5080755;28;1133;-52
2023/07/29 04:06:29;;;;;;;;;;;;;;;18.18;45.84;100560.69;5075858;28;1189;-52
2023/07/29 04:08:55;;;;;;;;;;;;;;;17.99;45.63;100558.63;5073012;28;1981;-53
2023/07/29 04:11:20;;;;;;;;;;;;;;;18.03;45.75;100565.19;5075058;28;1396;-53
2023/07/29 04:13:46;;;;;;;;;;;;;;;18.76;46.85;100566.13;5090730;28;1073;-52
2023/07/29 04:16:13;;;;;;;;;;;;;;;18.27;46.63;100567.19;5079322;28;2354;-51
2023/07/29 04:18:38;;;;;;;;;;;;;;;18.10;46.08;100565.72;5080564;28;1064;-47
2023/07/29 04:21:04;;;;;;;;;;;;;;;18.02;45.46;100574.59;5067457;28;1145;-51
2023/07/29 04:23:30;;;;;;;;;;;;;;;18.00;45.14;100565.78;5071837;28;936;-49
2023/07/29 04:25:55;;;;;;;;;;;;;;;17.93;44.96;100559.78;5061969;28;1197;-51
2023/07/29 04:28:21;;;;;;;;;;;;;;;18.63;46.08;100564.06;5098182;28;1011;-47
2023/07/29 04:30:47;;;;;;;;;;;;;;;18.41;46.38;100562.66;5076777;28;1103;-51
2023/07/29 04:33:12;;;;;;;;;;;;;;;18.07;46.46;100559.94;5078484;28;1148;-51
2023/07/29 04:35:38;;;;;;;;;;;;;;;18.02;45.62;100562.75;5093400;28;1157;-53
2023/07/29 04:38:04;;;;;;;;;;;;;;;18.07;45.73;100569.03;5098443;28;1050;-53
2023/07/29 04:40:29;;;;;;;;;;;;;;;18.63;46.73;100580.59;5096611;28;1094;-54
2023/07/29 04:42:55;;;;;;;;;;;;;;;18.26;46.53;100579.34;5080016;28;1393;-50
2023/07/29 04:45:20;;;;;;;;;;;;;;;18.06;45.86;100581.16;5086761;28;1927;-51
2023/07/29 04:47:46;;;;;;;;;;;;;;;18.03;45.53;100575.41;5078325;28;1000;-52
2023/07/29 04:50:12;;;;;;;;;;;;;;;18.67;46.14;100584.41;5060136;28;1913;-52
2023/07/29 04:52:37;;;;;;;;;;;;;;;16.77;51.63;100592.00;5078294;28;1075;-51
2023/07/29 04:55:03;;;;;;;;;;;;;;;17.64;49.62;100587.22;5095943;28;1127;-53
2023/07/29 04:57:29;;;;;;;;;;;;;;;17.72;49.30;100587.41;5097587;28;1137;-53
2023/07/29 04:59:54;;;;;;;;;;;;;;;17.77;49.39;100587.38;5079739;28;1531;-52
2023/07/29 05:02:20;;;;;;;;;;;;;;;17.68;49.70;100594.59;5097969;28;1011;-52
2023/07/29 05:04:46;;;;;;;;;;;;;;;17.70;49.67;100592.41;5079576;28;1142;-53
2023/07/29 05:07:12;;;;;;;;;;;;;;;17.64;50.10;100596.28;5089869;28;1130;-50
2023/07/29 05:09:37;;;;;;;;;;;;;;;17.56;50.38;100585.91;5096817;28;1914;-50
2023/07/29 05:12:03;;;;;;;;;;;;;;;17.56;50.23;100589.47;5079184;28;1390;-48
2023/07/29 05:14:29;;;;;;;;;;;;;;;17.47;50.42;100588.41;5074938;28;1094;-50
2023/07/29 05:16:54;;;;;;;;;;;;;;;17.43;50.76;100590.91;5070641;28;1106;-49
2023/07/29 05:19:20;;;;;;;;;;;;;;;17.41;50.63;100598.63;5075159;28;1101;-50
2023/07/29 05:21:46;;;;;;;;;;;;;;;17.34;51.05;100587.13;5079093;28;1174;-50
2023/07/29 05:24:11;;;;;;;;;;;;;;;17.35;51.02;100585.19;5075176;28;1326;-49
2023/07/29 05:26:37;;;;;;;;;;;;;;;17.31;51.11;100581.38;5059070;28;1044;-51
2023/07/29 05:29:03;;;;;;;;;;;;;;;17.22;51.29;100589.38;5073635;28;2009;-50
2023/07/29 05:31:29;;;;;;;;;;;;;;;17.20;51.29;100597.09;5079492;28;1211;-52
2023/07/29 05:33:55;;;;;;;;;;;;;;;17.22;51.16;100594.88;5096735;28;1175;-48
2023/07/29 05:36:20;;;;;;;;;;;;;;;17.14;51.62;100596.28;5079155;28;1250;-49
2023/07/29 05:38:46;;;;;;;;;;;;;;;17.13;51.26;100593.81;5097284;28;1232;-50
2023/07/29 05:41:12;;;;;;;;;;;;;;;17.08;51.72;100587.25;5097178;28;1194;-51
2023/07/29 05:43:37;;;;;;;;;;;;;;;17.16;51.58;100590.50;5079397;28;1333;-51
2023/07/29 05:46:03;;;;;;;;;;;;;;;17.12;51.40;100584.75;5096810;28;1114;-52
2023/07/29 05:48:29;;;;;;;;;;;;;;;17.10;51.53;100589.72;5065735;28;1913;-52
2023/07/29 05:50:54;;;;;;;;;;;;;;;17.15;51.32;100594.34;5064894;28;1296;-52
2023/07/29 05:53:20;;;;;;;;;;;;;;;17.07;51.73;100582.84;5066033;28;1162;-48
2023/07/29 05:55:46;;;;;;;;;;;;;;;16.99;51.89;100586.19;5076918;28;1044;-44
2023/07/29 05:58:11;;;;;;;;;;;;;;;16.99;51.74;100580.69;5051720;28;1407;-48
2023/07/29 06:00:37;;;;;;;;;;;;;;;17.00;51.71;100589.75;5068529;28;1115;-51
2023/07/29 06:03:02;;;;;;;;;;;;;;;16.96;51.88;100585.91;5071647;28;1325;-54
2023/07/29 06:05:28;;;;;;;;;;;;;;;16.89;52.12;100586.22;5072507;28;1090;-50
2023/07/29 06:07:54;;;;;;;;;;;;;;;16.87;52.12;100578.25;5077318;28;1067;-54
2023/07/29 06:10:19;;;;;;;;;;;;;;;16.82;52.10;100582.94;5062625;28;1914;-55
2023/07/29 06:12:45;;;;;;;;;;;;;;;16.85;52.07;100585.13;5065785;28;1174;-55
2023/07/29 06:15:12;;;;;;;;;;;;;;;16.86;52.06;100589.50;5076662;28;1122;-55
2023/07/29 06:17:38;;;;;;;;;;;;;;;16.81;52.13;100592.25;5070443;28;1083;-55
2023/07/29 06:20:03;;;;;;;;;;;;;;;16.83;52.27;100588.16;5058135;28;1102;-56
2023/07/29 06:22:29;;;;;;;;;;;;;;;16.79;52.25;100591.72;5066607;28;1090;-57
2023/07/29 06:24:55;;;;;;;;;;;;;;;16.68;52.48;100591.75;5089533;28;1155;-56
2023/07/29 06:27:20;;;;;;;;;;;;;;;16.73;52.60;100590.91;5095819;28;1367;-57
2023/07/29 06:29:46;;;;;;;;;;;;;;;16.76;52.25;100593.94;5095148;28;1984;-55
2023/07/29 06:32:11;;;;;;;;;;;;;;;16.75;52.51;100589.53;5083583;28;1011;-55
2023/07/29 06:34:37;;;;;;;;;;;;;;;16.75;52.36;100584.03;5093060;28;1174;-55
2023/07/29 06:37:02;;;;;;;;;;;;;;;16.69;52.39;100587.91;5083866;28;1114;-55
2023/07/29 06:39:28;;;;;;;;;;;;;;;16.65;52.80;100586.81;5083133;28;1146;-54
2023/07/29 06:41:53;;;;;;;;;;;;;;;16.70;52.61;100583.22;5093534;28;1332;-59
2023/07/29 06:44:19;;;;;;;;;;;;;;;16.65;52.67;100586.81;5093747;28;1174;-59
2023/07/29 06:46:45;;;;;;;;;;;;;;;16.57;52.75;100584.63;5082713;28;1177;-59
2023/07/29 06:49:10;;;;;;;;;;;;;;;16.66;52.78;100591.22;5084528;28;1917;-58
2023/07/29 06:51:36;;;;;;;;;;;;;;;16.60;52.87;100590.38;5089881;28;1111;-60
2023/07/29 06:54:01;;;;;;;;;;;;;;;16.54;53.13;100593.44;5077389;28;1101;-60
2023/07/29 06:56:27;;;;;;;;;;;;;;;16.57;52.91;100590.94;5089259;28;1078;-58
2023/07/29 06:58:52;;;;;;;;;;;;;;;16.55;52.87;100589.56;5074140;28;1150;-60
2023/07/29 07:01:18;;;;;;;;;;;;;;;16.54;52.94;100585.19;5092598;28;1014;-61
2023/07/29 07:03:44;;;;;;;;;;;;;;;16.60;52.83;100584.88;5067696;28;1147;-62
2023/07/29 07:06:09;;;;;;;;;;;;;;;16.51;53.22;100585.72;5089121;28;1122;-61
2023/07/29 07:08:35;;;;;;;;;;;;;;;16.55;53.01;100582.19;5081050;28;1976;-59
2023/07/29 07:11:00;;;;;;;;;;;;;;;16.55;52.99;100575.84;5075799;28;1094;-58
2023/07/29 07:13:26;;;;;;;;;;;;;;;16.47;53.06;100590.16;5082341;28;1548;-59
2023/07/29 07:15:54;;;;;;;;;;;;;;;16.55;52.90;100587.66;5088994;28;1082;-59
2023/07/29 07:18:22;;;;;;;;;;;;;;;16.51;52.93;100585.72;5084145;28;1134;-58
2023/07/29 07:20:50;;;;;;;;;;;;;;;16.52;53.02;100582.75;5081365;28;1194;-62
2023/07/29 07:23:16;;;;;;;;;;;;;;;16.53;53.20;100589.03;5082854;28;1164;-60
2023/07/29 07:25:42;;;;;;;;;;;;;;;16.54;52.92;100588.75;5082771;28;1149;-61
2023/07/29 07:28:08;;;;;;;;;;;;;;;16.50;53.29;100592.34;5095826;28;1221;-59
2023/07/29 07:30:33;;;;;;;;;;;;;;;16.48;53.11;100580.81;5095130;28;1890;-61
2023/07/29 07:32:59;;;;;;;;;;;;;;;16.48;53.14;100578.91;5099520;28;1043;-61
2023/07/29 07:35:24;;;;;;;;;;;;;;;16.50;53.06;100581.38;5083406;28;1130;-60
2023/07/29 07:37:50;;;;;;;;;;;;;;;16.47;53.39;100584.69;5099850;28;995;-60
2023/07/29 07:40:16;;;;;;;;;;;;;;;16.52;53.07;100577.25;5088274;28;1181;-62
2023/07/29 07:42:41;;;;;;;;;;;;;;;16.50;53.31;100570.38;5091717;28;1336;-58
2023/07/29 07:45:07;;;;;;;;;;;;;;;16.47;53.20;100579.19;5098244;28;1174;-59
2023/07/29 07:47:32;;;;;;;;;;;;;;;16.48;53.28;100572.56;5098591;28;1355;-60
2023/07/29 07:49:58;;;;;;;;;;;;;;;16.48;53.19;100575.31;5091269;28;1965;-63
2023/07/29 07:52:23;;;;;;;;;;;;;;;16.48;53.28;100572.56;5099338;28;1067;-61
2023/07/29 07:54:53;;;;;;;;;;;;;;;16.41;53.35;100570.94;5098106;28;1082;-61
2023/07/29 07:57:19;;;;;;;;;;;;;;;16.47;53.51;100562.72;5099228;28;1350;-62
2023/07/29 07:59:45;;;;;;;;;;;;;;;16.42;53.32;100567.13;5088556;28;1142;-61
2023/07/29 08:02:10;;;;;;;;;;;;;;;16.49;53.13;100560.50;5098628;28;1663;-62
2023/07/29 08:04:36;;;;;;;;;;;;;;;16.48;53.24;100561.59;5087845;28;1170;-61
2023/07/29 08:07:02;;;;;;;;;;;;;;;16.41;53.39;100565.47;5078915;28;1053;-62
2023/07/29 08:09:27;;;;;;;;;;;;;;;16.46;53.42;100556.38;5078396;28;1914;-62
2023/07/29 08:11:53;;;;;;;;;;;;;;;16.41;53.31;100550.91;5097487;28;1127;-63
2023/07/29 08:14:18;;;;;;;;;;;;;;;16.41;53.64;100548.16;5086493;28;1098;-62
2023/07/29 08:16:44;;;;;;;;;;;;;;;16.45;53.50;100542.94;5078761;28;1485;-61
2023/07/29 08:19:09;;;;;;;;;;;;;;;16.47;53.39;100549.00;5086532;28;1038;-61
2023/07/29 08:21:36;;;;;;;;;;;;;;;16.42;53.65;100541.56;5098607;28;1110;-61
2023/07/29 08:24:01;;;;;;;;;;;;;;;16.46;53.56;100536.38;5089502;28;1102;-63
2023/07/29 08:26:27;;;;;;;;;;;;;;;16.40;53.66;100530.06;5093383;28;1123;-62
2023/07/29 08:28:52;;;;;;;;;;;;;;;16.43;53.47;100535.00;5094613;28;1971;-63
2023/07/29 08:31:18;;;;;;;;;;;;;;;16.47;53.42;100529.78;5083383;28;1134;-60
2023/07/29 08:33:43;;;;;;;;;;;;;;;16.47;53.31;100527.84;5086687;28;1054;-65
2023/07/29 08:36:09;;;;;;;;;;;;;;;16.44;53.78;100514.69;5091299;28;1114;-63
2023/07/29 08:38:35;;;;;;;;;;;;;;;16.48;53.63;100510.28;5078758;28;1118;-59
2023/07/29 08:41:27;;;;;;;;;;;;;;;16.39;53.58;100510.03;5096598;28;1103;-62
2023/07/29 08:43:56;;;;;;;;;;;;;;;16.38;53.66;100502.91;5075877;28;1008;-62
2023/07/29 08:46:21;;;;;;;;;;;;;;;16.41;53.80;100499.59;5073057;28;1142;-62
2023/07/29 08:48:47;;;;;;;;;;;;;;;16.45;53.77;100496.28;5085838;28;1979;-56
2023/07/29 08:51:12;;;;;;;;;;;;;;;16.45;53.49;100501.78;5060081;28;1127;-58
2023/07/29 08:53:38;;;;;;;;;;;;;;;16.43;53.91;100499.31;5087685;28;1158;-61
2023/07/29 08:56:05;;;;;;;;;;;;;;;16.48;53.66;100498.47;5081519;28;1182;-60
2023/07/29 08:58:30;;;;;;;;;;;;;;;16.50;53.48;100493.53;5098704;28;1112;-58
2023/07/29 09:00:56;;;;;;;;;;;;;;;16.42;53.78;100490.28;5065872;28;1158;-58
2023/07/29 09:03:22;;;;;;;;;;;;;;;16.49;53.70;100480.91;5077805;28;1133;-56
2023/07/29 09:05:47;;;;;;;;;;;;;;;16.45;53.59;100479.81;5081439;28;1123;-58
2023/07/29 09:08:13;;;;;;;;;;;;;;;16.47;53.65;100480.38;5097971;28;1050;-59
2023/07/29 09:10:39;;;;;;;;;;;;;;;16.44;53.61;100481.75;5101886;28;1945;-57
2023/07/29 09:13:05;;;;;;;;;;;;;;;16.46;53.54;100476.00;5086611;28;881;-58
2023/07/29 09:15:33;;;;;;;;;;;;;;;16.50;53.68;100474.31;5083909;28;1075;-57
2023/07/29 09:17:59;;;;;;;;;;;;;;;16.52;53.45;100472.09;5097640;28;1102;-60
2023/07/29 09:20:25;;;;;;;;;;;;;;;16.51;53.64;100467.72;5079791;28;1066;-58
2023/07/29 09:22:51;;;;;;;;;;;;;;;16.48;53.90;100471.88;5077487;28;1102;-57
2023/07/29 09:25:21;;;;;;;;;;;;;;;16.50;53.84;100474.31;5077299;28;1054;-56
2023/07/29 09:27:47;;;;;;;;;;;;;;;16.44;53.90;100465.28;5088967;28;1051;-56
2023/07/29 09:30:16;;;;;;;;;;;;;;;16.49;53.82;100469.94;5083633;28;1985;-58
2023/07/29 09:32:41;;;;;;;;;;;;;;;16.50;53.88;100468.84;5085298;28;1169;-58
2023/07/29 09:35:11;;;;;;;;;;;;;;;16.49;53.85;100467.19;5082565;28;1039;-59
2023/07/29 09:37:37;;;;;;;;;;;;;;;16.50;54.02;100474.31;5078912;28;891;-59
2023/07/29 09:40:03;;;;;;;;;;;;;;;16.53;53.66;100473.75;5078227;28;1166;-58
2023/07/29 09:42:28;;;;;;;;;;;;;;;16.52;53.75;100461.13;5059479;28;939;-59
2023/07/29 09:44:54;;;;;;;;;;;;;;;16.50;54.00;100469.66;5078442;28;1189;-60
2023/07/29 09:47:21;;;;;;;;;;;;;;;16.54;53.70;100459.75;5079928;28;1154;-59
2023/07/29 09:49:46;;;;;;;;;;;;;;;16.52;53.73;100456.47;5086672;28;1905;-61
2023/07/29 09:52:14;;;;;;;;;;;;;;;16.46;53.83;100460.31;5090367;28;1118;-59
2023/07/29 09:54:39;;;;;;;;;;;;;;;16.47;54.04;100453.75;5067879;28;1198;-60
2023/07/29 09:57:06;;;;;;;;;;;;;;;16.48;53.96;100443.56;5095909;28;1275;-58
2023/07/29 09:59:34;;;;;;;;;;;;;;;16.51;53.83;100451.25;5096461;28;1323;-59
2023/07/29 10:02:00;;;;;;;;;;;;;;;16.52;54.08;100452.91;5089359;28;1146;-60
2023/07/29 10:04:25;;;;;;;;;;;;;;;16.53;53.92;100451.81;5093575;28;1260;-57
2023/07/29 10:06:51;;;;;;;;;;;;;;;16.53;54.06;100449.88;5069481;28;1036;-59
2023/07/29 10:09:17;;;;;;;;;;;;;;;16.56;53.93;100451.22;5092273;28;1909;-59
2023/07/29 10:11:42;;;;;;;;;;;;;;;16.60;53.67;100446.81;5076567;28;1035;-57
2023/07/29 10:14:08;;;;;;;;;;;;;;;16.53;54.15;100443.56;5076051;28;845;-58
2023/07/29 10:16:34;;;;;;;;;;;;;;;16.61;53.95;100442.97;5076409;28;1086;-58
2023/07/29 10:19:00;;;;;;;;;;;;;;;16.55;53.99;100444.09;5093381;28;1199;-57
2023/07/29 10:21:25;;;;;;;;;;;;;;;16.53;53.91;100438.06;5088674;28;1146;-60
2023/07/29 10:23:51;;;;;;;;;;;;;;;16.56;53.99;100448.50;5074870;28;1192;-59
2023/07/29 10:26:16;;;;;;;;;;;;;;;16.54;53.98;100443.28;5068886;28;901;-59
2023/07/29 10:28:43;;;;;;;;;;;;;;;16.55;53.87;100438.59;5064477;28;1981;-56
2023/07/29 10:31:09;;;;;;;;;;;;;;;16.55;53.84;100438.59;5072812;28;1194;-56
2023/07/29 10:33:35;;;;;;;;;;;;;;;16.56;53.85;100440.25;5077804;28;1342;-56
2023/07/29 10:36:01;;;;;;;;;;;;;;;16.56;54.01;100445.75;5073397;28;1209;-60
2023/07/29 10:38:26;;;;;;;;;;;;;;;16.55;54.08;100444.94;5066161;28;1193;-58
2023/07/29 10:40:55;;;;;;;;;;;;;;;16.60;54.09;100441.34;5063537;28;1206;-59
2023/07/29 10:43:30;;;;;;;;;;;;;;;16.54;54.13;100442.47;5085609;28;1125;-59
2023/07/29 10:45:56;;;;;;;;;;;;;;;16.54;54.34;100447.97;5081012;28;1065;-59
2023/07/29 10:48:36;;;;;;;;;;;;;;;16.54;54.07;100436.97;5085275;28;1243;-59
2023/07/29 10:51:21;;;;;;;;;;;;;;;16.58;54.13;100433.38;5082995;28;1075;-58
2023/07/29 10:53:46;;;;;;;;;;;;;;;16.55;54.13;100431.22;5082814;28;1198;-58
2023/07/29 10:56:12;;;;;;;;;;;;;;;16.55;54.35;100433.13;5081427;28;1095;-56
2023/07/29 10:58:38;;;;;;;;;;;;;;;16.55;54.29;100439.44;5089337;28;1039;-58
2023/07/29 11:01:12;;;;;;;;;;;;;;;16.56;54.36;100434.75;5079039;28;1107;-58
2023/07/29 11:03:38;;;;;;;;;;;;;;;16.53;54.73;100440.81;5080018;28;1176;-58
2023/07/29 11:06:06;;;;;;;;;;;;;;;16.57;54.48;100439.16;5084702;28;1130;-56
2023/07/29 11:08:33;;;;;;;;;;;;;;;16.56;54.39;100445.75;5080180;28;1724;-58
2023/07/29 11:11:06;;;;;;;;;;;;;;;16.53;54.51;100444.38;5091442;28;1906;-59
2023/07/29 11:13:32;;;;;;;;;;;;;;;16.62;54.44;100450.13;5099360;28;1148;-59
2023/07/29 11:15:58;;;;;;;;;;;;;;;16.56;54.57;100446.59;5088379;28;995;-57
2023/07/29 11:18:33;;;;;;;;;;;;;;;16.53;54.56;100440.81;5098684;28;1071;-58
2023/07/29 11:20:59;;;;;;;;;;;;;;;16.52;54.67;100444.66;5099801;28;963;-57
2023/07/29 11:23:34;;;;;;;;;;;;;;;16.57;54.52;100450.13;5080107;28;1213;-55
2023/07/29 11:26:01;;;;;;;;;;;;;;;16.53;54.62;100446.31;5080705;28;1016;-59
2023/07/29 11:28:27;;;;;;;;;;;;;;;16.52;54.63;100440.00;5099444;28;1102;-60
2023/07/29 11:30:53;;;;;;;;;;;;;;;16.51;54.92;100440.28;5089063;28;1902;-59
2023/07/29 11:33:19;;;;;;;;;;;;;;;16.55;54.65;100430.38;5079467;28;1023;-59
2023/07/29 11:35:45;;;;;;;;;;;;;;;16.52;54.82;100433.69;5093714;28;1193;-59
2023/07/29 11:38:14;;;;;;;;;;;;;;;16.55;54.83;100436.69;5091483;28;1339;-59
2023/07/29 11:40:40;;;;;;;;;;;;;;;16.56;54.43;100440.25;5093114;28;1130;-58
2023/07/29 11:43:05;;;;;;;;;;;;;;;16.56;54.45;100440.25;5099627;28;1260;-58
2023/07/29 11:45:31;;;;;;;;;;;;;;;16.58;54.42;100438.06;5095773;28;1442;-59
2023/07/29 11:47:56;;;;;;;;;;;;;;;16.53;54.50;100429.84;5099117;28;1383;-58
2023/07/29 11:50:22;;;;;;;;;;;;;;;16.52;54.73;100436.44;5096821;28;1917;-59
2023/07/29 11:52:47;;;;;;;;;;;;;;;16.53;54.51;100436.16;5099229;28;1351;-60
2023/07/29 11:55:14;;;;;;;;;;;;;;;16.53;54.84;100430.66;5099711;28;1363;-58
2023/07/29 11:57:39;;;;;;;;;;;;;;;16.50;54.65;100424.94;5089285;28;1014;-60
2023/07/29 12:00:06;;;;;;;;;;;;;;;16.55;54.55;100430.38;5090730;28;1094;-59
2023/07/29 12:02:35;;;;;;;;;;;;;;;16.49;54.89;100424.09;5078690;28;877;-60
2023/07/29 12:05:00;;;;;;;;;;;;;;;16.48;54.78;100429.84;5092570;28;1090;-60
2023/07/29 12:07:26;;;;;;;;;;;;;;;16.52;54.93;100422.69;5071778;28;1194;-59
2023/07/29 12:09:51;;;;;;;;;;;;;;;16.50;54.94;100423.00;5081140;28;1901;-59
2023/07/29 12:12:17;;;;;;;;;;;;;;;16.54;54.67;100417.78;5070572;28;1166;-59
2023/07/29 12:14:49;;;;;;;;;;;;;;;16.52;54.80;100423.53;5092191;28;1146;-60
2023/07/29 12:17:14;;;;;;;;;;;;;;;16.54;54.66;100428.75;5078946;28;1039;-59
2023/07/29 12:19:40;;;;;;;;;;;;;;;16.49;54.98;100431.50;5092241;28;1169;-59
2023/07/29 12:22:06;;;;;;;;;;;;;;;16.50;54.75;100435.91;5090118;28;1142;-59
2023/07/29 12:24:32;;;;;;;;;;;;;;;16.54;54.57;100429.56;5093912;28;1101;-59
2023/07/29 12:26:58;;;;;;;;;;;;;;;16.54;54.71;100423.25;5090606;28;947;-59
2023/07/29 12:29:24;;;;;;;;;;;;;;;16.53;54.67;100425.16;5098396;28;1902;-59
2023/07/29 12:31:49;;;;;;;;;;;;;;;16.56;54.36;100423.78;5087106;28;1134;-59
2023/07/29 12:34:19;;;;;;;;;;;;;;;16.49;54.81;100424.09;5060466;28;1330;-59
2023/07/29 12:36:45;;;;;;;;;;;;;;;16.50;54.62;100433.16;5090594;28;1119;-59
2023/07/29 12:39:20;;;;;;;;;;;;;;;16.50;54.61;100422.19;5082408;28;1169;-59
2023/07/29 12:41:46;;;;;;;;;;;;;;;16.48;54.68;100422.47;5078056;28;1083;-59
2023/07/29 12:44:12;;;;;;;;;;;;;;;16.52;54.68;100422.69;5082233;28;1151;-59